sensor_id;sensor_type;location;lat;lon;timestamp;P1;durP1;ratioP1;P2;durP2;ratioP2
7669;SDS011;3877;42.562;27.636;2023-03-01T00:02:07;13.10;;;8.07;;
7669;SDS011;3877;42.562;27.636;2023-03-01T00:04:34;14.27;;;8.37;;
7669;SDS011;3877;42.562;27.636;2023-03-01T00:07:02;15.13;;;8.87;;
7669;SDS011;3877;42.562;27.636;2023-03-01T00:09:30;11.00;;;7.57;;
7669;SDS011;3877;42.562;27.636;2023-03-01T00:11:57;25.83;;;9.07;;
7669;SDS011;3877;42.562;27.636;2023-03-01T00:14:25;11.63;;;8.07;;
7669;SDS011;3877;42.562;27.636;2023-03-01T00:16:52;14.27;;;7.10;;
7669;SDS011;3877;42.562;27.636;2023-03-01T00:19:19;15.13;;;8.23;;
7669;SDS011;3877;42.562;27.636;2023-03-01T00:21:48;19.43;;;8.43;;
7669;SDS011;3877;42.562;27.636;2023-03-01T00:24:15;15.70;;;9.00;;
7669;SDS011;3877;42.562;27.636;2023-03-01T00:26:44;11.30;;;8.70;;
7669;SDS011;3877;42.562;27.636;2023-03-01T00:29:11;15.77;;;9.63;;
7669;SDS011;3877;42.562;27.636;2023-03-01T00:31:38;14.20;;;8.57;;
7669;SDS011;3877;42.562;27.636;2023-03-01T00:34:05;17.23;;;9.50;;
7669;SDS011;3877;42.562;27.636;2023-03-01T00:36:33;16.30;;;8.93;;
7669;SDS011;3877;42.562;27.636;2023-03-01T00:39:02;19.57;;;9.13;;
7669;SDS011;3877;42.562;27.636;2023-03-01T00:41:31;9.87;;;6.83;;
7669;SDS011;3877;42.562;27.636;2023-03-01T00:44:02;17.10;;;9.33;;
7669;SDS011;3877;42.562;27.636;2023-03-01T00:46:30;14.03;;;9.30;;
7669;SDS011;3877;42.562;27.636;2023-03-01T00:48:57;13.53;;;8.37;;
7669;SDS011;3877;42.562;27.636;2023-03-01T00:51:27;13.73;;;9.43;;
7669;SDS011;3877;42.562;27.636;2023-03-01T00:53:56;12.57;;;9.40;;
7669;SDS011;3877;42.562;27.636;2023-03-01T00:56:24;15.17;;;9.63;;
7669;SDS011;3877;42.562;27.636;2023-03-01T00:58:52;12.93;;;7.67;;
7669;SDS011;3877;42.562;27.636;2023-03-01T01:01:22;14.63;;;8.30;;
7669;SDS011;3877;42.562;27.636;2023-03-01T01:03:53;12.63;;;8.40;;
7669;SDS011;3877;42.562;27.636;2023-03-01T01:06:21;15.27;;;8.67;;
7669;SDS011;3877;42.562;27.636;2023-03-01T01:08:50;11.57;;;7.70;;
7669;SDS011;3877;42.562;27.636;2023-03-01T01:11:19;20.00;;;8.00;;
7669;SDS011;3877;42.562;27.636;2023-03-01T01:13:47;15.27;;;8.87;;
7669;SDS011;3877;42.562;27.636;2023-03-01T01:16:15;16.10;;;8.70;;
7669;SDS011;3877;42.562;27.636;2023-03-01T01:18:45;12.33;;;8.20;;
7669;SDS011;3877;42.562;27.636;2023-03-01T01:21:13;13.27;;;8.20;;
7669;SDS011;3877;42.562;27.636;2023-03-01T01:23:41;14.47;;;8.00;;
7669;SDS011;3877;42.562;27.636;2023-03-01T01:26:11;12.13;;;7.80;;
7669;SDS011;3877;42.562;27.636;2023-03-01T01:28:39;12.47;;;7.60;;
7669;SDS011;3877;42.562;27.636;2023-03-01T01:31:06;12.23;;;7.40;;
7669;SDS011;3877;42.562;27.636;2023-03-01T01:33:33;17.30;;;6.87;;
7669;SDS011;3877;42.562;27.636;2023-03-01T01:36:04;12.17;;;7.10;;
7669;SDS011;3877;42.562;27.636;2023-03-01T01:38:31;12.20;;;6.50;;
7669;SDS011;3877;42.562;27.636;2023-03-01T01:40:59;11.77;;;7.10;;
7669;SDS011;3877;42.562;27.636;2023-03-01T01:43:27;10.90;;;7.20;;
7669;SDS011;3877;42.562;27.636;2023-03-01T01:45:55;9.87;;;5.70;;
7669;SDS011;3877;42.562;27.636;2023-03-01T01:48:27;9.30;;;6.03;;
7669;SDS011;3877;42.562;27.636;2023-03-01T01:51:07;11.63;;;6.60;;
7669;SDS011;3877;42.562;27.636;2023-03-01T01:53:39;11.73;;;5.90;;
7669;SDS011;3877;42.562;27.636;2023-03-01T01:56:09;17.80;;;5.73;;
7669;SDS011;3877;42.562;27.636;2023-03-01T01:58:39;8.80;;;6.03;;
7669;SDS011;3877;42.562;27.636;2023-03-01T02:01:09;7.97;;;5.70;;
7669;SDS011;3877;42.562;27.636;2023-03-01T02:03:36;6.17;;;4.90;;
7669;SDS011;3877;42.562;27.636;2023-03-01T02:06:12;8.87;;;5.03;;
7669;SDS011;3877;42.562;27.636;2023-03-01T02:08:44;12.47;;;5.10;;
7669;SDS011;3877;42.562;27.636;2023-03-01T02:11:15;9.07;;;4.67;;
7669;SDS011;3877;42.562;27.636;2023-03-01T02:13:44;10.70;;;5.60;;
7669;SDS011;3877;42.562;27.636;2023-03-01T02:16:14;9.10;;;5.77;;
7669;SDS011;3877;42.562;27.636;2023-03-01T02:18:42;11.33;;;5.60;;
7669;SDS011;3877;42.562;27.636;2023-03-01T02:21:20;9.20;;;4.80;;
7669;SDS011;3877;42.562;27.636;2023-03-01T02:23:56;7.27;;;4.27;;
7669;SDS011;3877;42.562;27.636;2023-03-01T02:26:29;8.03;;;4.50;;
7669;SDS011;3877;42.562;27.636;2023-03-01T02:29:03;7.50;;;4.47;;
7669;SDS011;3877;42.562;27.636;2023-03-01T02:31:31;10.40;;;5.70;;
7669;SDS011;3877;42.562;27.636;2023-03-01T02:34:11;14.33;;;5.77;;
7669;SDS011;3877;42.562;27.636;2023-03-01T02:36:40;8.47;;;5.67;;
7669;SDS011;3877;42.562;27.636;2023-03-01T02:39:12;10.47;;;5.77;;
7669;SDS011;3877;42.562;27.636;2023-03-01T02:41:44;8.50;;;5.13;;
7669;SDS011;3877;42.562;27.636;2023-03-01T02:44:15;9.80;;;5.20;;
7669;SDS011;3877;42.562;27.636;2023-03-01T02:46:43;8.57;;;4.93;;
7669;SDS011;3877;42.562;27.636;2023-03-01T02:49:19;15.73;;;6.53;;
7669;SDS011;3877;42.562;27.636;2023-03-01T02:51:52;17.30;;;5.97;;
7669;SDS011;3877;42.562;27.636;2023-03-01T02:54:33;12.33;;;6.10;;
7669;SDS011;3877;42.562;27.636;2023-03-01T02:57:05;12.23;;;6.37;;
7669;SDS011;3877;42.562;27.636;2023-03-01T02:59:34;10.37;;;6.47;;
7669;SDS011;3877;42.562;27.636;2023-03-01T03:02:04;18.23;;;6.70;;
7669;SDS011;3877;42.562;27.636;2023-03-01T03:04:31;18.20;;;6.83;;
7669;SDS011;3877;42.562;27.636;2023-03-01T03:06:58;9.97;;;5.70;;
7669;SDS011;3877;42.562;27.636;2023-03-01T03:09:25;11.13;;;5.60;;
7669;SDS011;3877;42.562;27.636;2023-03-01T03:11:53;11.50;;;5.23;;
7669;SDS011;3877;42.562;27.636;2023-03-01T03:14:21;6.30;;;4.40;;
7669;SDS011;3877;42.562;27.636;2023-03-01T03:16:50;8.67;;;4.80;;
7669;SDS011;3877;42.562;27.636;2023-03-01T03:19:17;9.13;;;5.13;;
7669;SDS011;3877;42.562;27.636;2023-03-01T03:21:45;11.83;;;5.40;;
7669;SDS011;3877;42.562;27.636;2023-03-01T03:24:12;12.07;;;4.70;;
7669;SDS011;3877;42.562;27.636;2023-03-01T03:26:39;8.03;;;5.07;;
7669;SDS011;3877;42.562;27.636;2023-03-01T03:29:07;14.03;;;5.90;;
7669;SDS011;3877;42.562;27.636;2023-03-01T03:31:34;11.80;;;5.77;;
7669;SDS011;3877;42.562;27.636;2023-03-01T03:34:02;15.33;;;5.37;;
7669;SDS011;3877;42.562;27.636;2023-03-01T03:36:30;11.43;;;5.63;;
7669;SDS011;3877;42.562;27.636;2023-03-01T03:38:57;16.87;;;5.80;;
7669;SDS011;3877;42.562;27.636;2023-03-01T03:41:24;17.53;;;6.77;;
7669;SDS011;3877;42.562;27.636;2023-03-01T03:43:51;16.13;;;5.90;;
7669;SDS011;3877;42.562;27.636;2023-03-01T03:46:18;12.23;;;7.03;;
7669;SDS011;3877;42.562;27.636;2023-03-01T03:48:45;11.27;;;6.80;;
7669;SDS011;3877;42.562;27.636;2023-03-01T03:51:16;11.90;;;7.00;;
7669;SDS011;3877;42.562;27.636;2023-03-01T03:53:44;11.43;;;6.53;;
7669;SDS011;3877;42.562;27.636;2023-03-01T03:56:11;14.63;;;7.37;;
7669;SDS011;3877;42.562;27.636;2023-03-01T04:01:24;13.30;;;7.70;;
7669;SDS011;3877;42.562;27.636;2023-03-01T04:03:51;15.07;;;8.77;;
7669;SDS011;3877;42.562;27.636;2023-03-01T04:06:21;16.90;;;8.73;;
7669;SDS011;3877;42.562;27.636;2023-03-01T04:08:48;16.97;;;9.57;;
7669;SDS011;3877;42.562;27.636;2023-03-01T04:11:33;16.67;;;10.23;;
7669;SDS011;3877;42.562;27.636;2023-03-01T04:14:01;15.63;;;8.50;;
7669;SDS011;3877;42.562;27.636;2023-03-01T04:16:29;15.37;;;10.00;;
7669;SDS011;3877;42.562;27.636;2023-03-01T04:19:00;18.10;;;9.50;;
7669;SDS011;3877;42.562;27.636;2023-03-01T04:21:28;13.17;;;9.30;;
7669;SDS011;3877;42.562;27.636;2023-03-01T04:23:55;17.70;;;11.10;;
7669;SDS011;3877;42.562;27.636;2023-03-01T04:26:22;21.10;;;12.20;;
7669;SDS011;3877;42.562;27.636;2023-03-01T04:28:49;15.80;;;11.03;;
7669;SDS011;3877;42.562;27.636;2023-03-01T04:31:18;19.67;;;11.77;;
7669;SDS011;3877;42.562;27.636;2023-03-01T04:33:47;15.70;;;9.13;;
7669;SDS011;3877;42.562;27.636;2023-03-01T04:36:16;19.70;;;11.43;;
7669;SDS011;3877;42.562;27.636;2023-03-01T04:38:45;16.37;;;10.93;;
7669;SDS011;3877;42.562;27.636;2023-03-01T04:41:14;17.43;;;9.63;;
7669;SDS011;3877;42.562;27.636;2023-03-01T04:43:42;17.20;;;11.00;;
7669;SDS011;3877;42.562;27.636;2023-03-01T04:46:10;24.37;;;12.17;;
7669;SDS011;3877;42.562;27.636;2023-03-01T04:48:39;13.83;;;9.43;;
7669;SDS011;3877;42.562;27.636;2023-03-01T04:51:07;19.30;;;10.20;;
7669;SDS011;3877;42.562;27.636;2023-03-01T04:53:35;20.60;;;12.07;;
7669;SDS011;3877;42.562;27.636;2023-03-01T04:56:04;14.73;;;9.97;;
7669;SDS011;3877;42.562;27.636;2023-03-01T04:58:32;19.17;;;10.13;;
7669;SDS011;3877;42.562;27.636;2023-03-01T05:00:59;17.40;;;10.90;;
7669;SDS011;3877;42.562;27.636;2023-03-01T05:03:26;22.10;;;9.87;;
7669;SDS011;3877;42.562;27.636;2023-03-01T05:05:54;16.67;;;10.07;;
7669;SDS011;3877;42.562;27.636;2023-03-01T05:08:26;16.70;;;8.50;;
7669;SDS011;3877;42.562;27.636;2023-03-01T05:10:53;14.73;;;9.47;;
7669;SDS011;3877;42.562;27.636;2023-03-01T05:13:22;17.33;;;10.03;;
7669;SDS011;3877;42.562;27.636;2023-03-01T05:15:53;21.30;;;11.90;;
7669;SDS011;3877;42.562;27.636;2023-03-01T05:18:21;17.30;;;10.23;;
7669;SDS011;3877;42.562;27.636;2023-03-01T05:20:51;20.30;;;9.93;;
7669;SDS011;3877;42.562;27.636;2023-03-01T05:23:18;16.57;;;8.87;;
7669;SDS011;3877;42.562;27.636;2023-03-01T05:25:46;16.77;;;8.87;;
7669;SDS011;3877;42.562;27.636;2023-03-01T05:28:14;14.40;;;8.80;;
7669;SDS011;3877;42.562;27.636;2023-03-01T05:30:43;16.17;;;10.43;;
7669;SDS011;3877;42.562;27.636;2023-03-01T05:33:10;14.43;;;8.20;;
7669;SDS011;3877;42.562;27.636;2023-03-01T05:35:39;13.97;;;7.63;;
7669;SDS011;3877;42.562;27.636;2023-03-01T05:38:07;12.07;;;8.37;;
7669;SDS011;3877;42.562;27.636;2023-03-01T05:40:38;11.97;;;8.50;;
7669;SDS011;3877;42.562;27.636;2023-03-01T05:43:05;13.33;;;8.60;;
7669;SDS011;3877;42.562;27.636;2023-03-01T05:45:32;18.60;;;10.70;;
7669;SDS011;3877;42.562;27.636;2023-03-01T05:48:03;23.43;;;10.70;;
7669;SDS011;3877;42.562;27.636;2023-03-01T05:50:32;16.60;;;8.40;;
7669;SDS011;3877;42.562;27.636;2023-03-01T05:53:02;15.57;;;8.10;;
7669;SDS011;3877;42.562;27.636;2023-03-01T05:55:31;12.83;;;6.97;;
7669;SDS011;3877;42.562;27.636;2023-03-01T05:57:59;15.43;;;8.43;;
7669;SDS011;3877;42.562;27.636;2023-03-01T06:00:26;11.53;;;7.27;;
7669;SDS011;3877;42.562;27.636;2023-03-01T06:02:55;14.10;;;8.53;;
7669;SDS011;3877;42.562;27.636;2023-03-01T06:05:25;10.07;;;6.30;;
7669;SDS011;3877;42.562;27.636;2023-03-01T06:07:52;14.43;;;7.57;;
7669;SDS011;3877;42.562;27.636;2023-03-01T06:10:20;12.83;;;7.50;;
7669;SDS011;3877;42.562;27.636;2023-03-01T06:12:48;18.27;;;7.80;;
7669;SDS011;3877;42.562;27.636;2023-03-01T06:15:16;13.37;;;8.63;;
7669;SDS011;3877;42.562;27.636;2023-03-01T06:17:44;19.40;;;8.17;;
7669;SDS011;3877;42.562;27.636;2023-03-01T06:20:13;10.73;;;8.00;;
7669;SDS011;3877;42.562;27.636;2023-03-01T06:22:44;21.77;;;8.63;;
7669;SDS011;3877;42.562;27.636;2023-03-01T06:25:13;10.43;;;7.13;;
7669;SDS011;3877;42.562;27.636;2023-03-01T06:27:41;13.77;;;7.87;;
7669;SDS011;3877;42.562;27.636;2023-03-01T06:30:09;11.73;;;7.07;;
7669;SDS011;3877;42.562;27.636;2023-03-01T06:32:39;14.80;;;7.87;;
7669;SDS011;3877;42.562;27.636;2023-03-01T06:35:07;15.03;;;7.80;;
7669;SDS011;3877;42.562;27.636;2023-03-01T06:37:35;9.20;;;5.83;;
7669;SDS011;3877;42.562;27.636;2023-03-01T06:40:04;14.77;;;8.13;;
7669;SDS011;3877;42.562;27.636;2023-03-01T06:42:33;14.23;;;7.63;;
7669;SDS011;3877;42.562;27.636;2023-03-01T06:45:00;11.13;;;8.17;;
7669;SDS011;3877;42.562;27.636;2023-03-01T06:47:27;14.57;;;7.60;;
7669;SDS011;3877;42.562;27.636;2023-03-01T06:49:55;10.77;;;5.67;;
7669;SDS011;3877;42.562;27.636;2023-03-01T06:52:22;14.17;;;7.17;;
7669;SDS011;3877;42.562;27.636;2023-03-01T06:54:49;19.93;;;8.10;;
7669;SDS011;3877;42.562;27.636;2023-03-01T06:57:18;12.07;;;6.80;;
7669;SDS011;3877;42.562;27.636;2023-03-01T06:59:46;15.17;;;7.37;;
7669;SDS011;3877;42.562;27.636;2023-03-01T07:02:13;14.57;;;7.93;;
7669;SDS011;3877;42.562;27.636;2023-03-01T07:04:41;14.77;;;8.73;;
7669;SDS011;3877;42.562;27.636;2023-03-01T07:07:09;12.43;;;7.53;;
7669;SDS011;3877;42.562;27.636;2023-03-01T07:09:37;13.80;;;7.70;;
7669;SDS011;3877;42.562;27.636;2023-03-01T07:12:05;16.73;;;6.83;;
7669;SDS011;3877;42.562;27.636;2023-03-01T07:14:34;14.60;;;7.90;;
7669;SDS011;3877;42.562;27.636;2023-03-01T07:17:02;13.50;;;7.07;;
7669;SDS011;3877;42.562;27.636;2023-03-01T07:19:29;9.40;;;7.23;;
7669;SDS011;3877;42.562;27.636;2023-03-01T07:21:56;12.47;;;7.13;;
7669;SDS011;3877;42.562;27.636;2023-03-01T07:24:23;19.03;;;7.27;;
7669;SDS011;3877;42.562;27.636;2023-03-01T07:26:51;12.13;;;7.83;;
7669;SDS011;3877;42.562;27.636;2023-03-01T07:29:19;9.13;;;6.17;;
7669;SDS011;3877;42.562;27.636;2023-03-01T07:31:50;12.63;;;6.17;;
7669;SDS011;3877;42.562;27.636;2023-03-01T07:34:17;14.20;;;7.90;;
7669;SDS011;3877;42.562;27.636;2023-03-01T07:36:45;11.50;;;6.27;;
7669;SDS011;3877;42.562;27.636;2023-03-01T07:39:12;13.20;;;6.00;;
7669;SDS011;3877;42.562;27.636;2023-03-01T07:41:39;10.63;;;5.77;;
7669;SDS011;3877;42.562;27.636;2023-03-01T07:44:07;10.70;;;6.10;;
7669;SDS011;3877;42.562;27.636;2023-03-01T07:46:34;11.90;;;6.60;;
7669;SDS011;3877;42.562;27.636;2023-03-01T07:49:02;15.63;;;6.43;;
7669;SDS011;3877;42.562;27.636;2023-03-01T07:51:30;12.97;;;6.23;;
7669;SDS011;3877;42.562;27.636;2023-03-01T07:53:57;10.60;;;6.63;;
7669;SDS011;3877;42.562;27.636;2023-03-01T07:56:24;12.23;;;6.33;;
7669;SDS011;3877;42.562;27.636;2023-03-01T07:58:51;12.93;;;7.30;;
7669;SDS011;3877;42.562;27.636;2023-03-01T08:01:20;10.30;;;6.57;;
7669;SDS011;3877;42.562;27.636;2023-03-01T08:03:48;15.23;;;5.70;;
7669;SDS011;3877;42.562;27.636;2023-03-01T08:06:17;13.40;;;7.17;;
7669;SDS011;3877;42.562;27.636;2023-03-01T08:08:45;14.93;;;7.70;;
7669;SDS011;3877;42.562;27.636;2023-03-01T08:11:13;12.53;;;7.50;;
7669;SDS011;3877;42.562;27.636;2023-03-01T08:13:41;14.60;;;8.33;;
7669;SDS011;3877;42.562;27.636;2023-03-01T08:16:10;18.70;;;8.67;;
7669;SDS011;3877;42.562;27.636;2023-03-01T08:18:39;11.17;;;6.93;;
7669;SDS011;3877;42.562;27.636;2023-03-01T08:21:07;13.37;;;6.93;;
7669;SDS011;3877;42.562;27.636;2023-03-01T08:23:37;16.27;;;7.53;;
7669;SDS011;3877;42.562;27.636;2023-03-01T08:26:05;16.63;;;8.60;;
7669;SDS011;3877;42.562;27.636;2023-03-01T08:28:34;11.93;;;8.13;;
7669;SDS011;3877;42.562;27.636;2023-03-01T08:31:01;10.57;;;7.23;;
7669;SDS011;3877;42.562;27.636;2023-03-01T08:33:29;16.87;;;9.03;;
7669;SDS011;3877;42.562;27.636;2023-03-01T08:36:02;11.50;;;7.93;;
7669;SDS011;3877;42.562;27.636;2023-03-01T08:38:32;12.77;;;7.27;;
7669;SDS011;3877;42.562;27.636;2023-03-01T08:41:01;13.23;;;8.17;;
7669;SDS011;3877;42.562;27.636;2023-03-01T08:43:29;15.63;;;9.20;;
7669;SDS011;3877;42.562;27.636;2023-03-01T08:45:57;14.77;;;8.93;;
7669;SDS011;3877;42.562;27.636;2023-03-01T08:48:24;14.07;;;8.43;;
7669;SDS011;3877;42.562;27.636;2023-03-01T08:50:53;18.80;;;9.90;;
7669;SDS011;3877;42.562;27.636;2023-03-01T08:53:21;19.37;;;8.33;;
7669;SDS011;3877;42.562;27.636;2023-03-01T08:55:48;13.67;;;8.23;;
7669;SDS011;3877;42.562;27.636;2023-03-01T08:58:17;16.03;;;8.97;;
7669;SDS011;3877;42.562;27.636;2023-03-01T09:00:44;18.10;;;9.53;;
7669;SDS011;3877;42.562;27.636;2023-03-01T09:03:11;16.30;;;7.83;;
7669;SDS011;3877;42.562;27.636;2023-03-01T09:05:38;19.20;;;9.20;;
7669;SDS011;3877;42.562;27.636;2023-03-01T09:08:06;18.10;;;10.17;;
7669;SDS011;3877;42.562;27.636;2023-03-01T09:10:36;13.57;;;8.87;;
7669;SDS011;3877;42.562;27.636;2023-03-01T09:13:04;13.67;;;8.40;;
7669;SDS011;3877;42.562;27.636;2023-03-01T09:15:33;16.73;;;8.47;;
7669;SDS011;3877;42.562;27.636;2023-03-01T09:18:00;16.40;;;7.77;;
7669;SDS011;3877;42.562;27.636;2023-03-01T09:20:27;16.17;;;8.67;;
7669;SDS011;3877;42.562;27.636;2023-03-01T09:22:55;13.27;;;7.97;;
7669;SDS011;3877;42.562;27.636;2023-03-01T09:25:23;18.73;;;8.03;;
7669;SDS011;3877;42.562;27.636;2023-03-01T09:27:51;18.47;;;8.60;;
7669;SDS011;3877;42.562;27.636;2023-03-01T09:30:19;15.93;;;9.10;;
7669;SDS011;3877;42.562;27.636;2023-03-01T09:32:49;17.03;;;9.50;;
7669;SDS011;3877;42.562;27.636;2023-03-01T09:35:16;18.40;;;8.70;;
7669;SDS011;3877;42.562;27.636;2023-03-01T09:37:45;21.23;;;9.93;;
7669;SDS011;3877;42.562;27.636;2023-03-01T09:40:12;17.30;;;9.50;;
7669;SDS011;3877;42.562;27.636;2023-03-01T09:42:46;19.60;;;10.10;;
7669;SDS011;3877;42.562;27.636;2023-03-01T09:45:22;19.30;;;10.97;;
7669;SDS011;3877;42.562;27.636;2023-03-01T09:48:01;13.57;;;8.83;;
7669;SDS011;3877;42.562;27.636;2023-03-01T09:50:32;16.60;;;9.33;;
7669;SDS011;3877;42.562;27.636;2023-03-01T09:53:03;17.23;;;8.93;;
7669;SDS011;3877;42.562;27.636;2023-03-01T09:55:33;13.60;;;8.40;;
7669;SDS011;3877;42.562;27.636;2023-03-01T09:58:10;17.67;;;8.20;;
7669;SDS011;3877;42.562;27.636;2023-03-01T10:00:56;22.83;;;9.20;;
7669;SDS011;3877;42.562;27.636;2023-03-01T10:03:32;13.53;;;7.67;;
7669;SDS011;3877;42.562;27.636;2023-03-01T10:06:06;13.93;;;8.90;;
7669;SDS011;3877;42.562;27.636;2023-03-01T10:08:40;16.27;;;9.60;;
7669;SDS011;3877;42.562;27.636;2023-03-01T10:11:17;18.60;;;9.33;;
7669;SDS011;3877;42.562;27.636;2023-03-01T10:13:48;16.27;;;9.10;;
7669;SDS011;3877;42.562;27.636;2023-03-01T10:16:21;14.30;;;9.93;;
7669;SDS011;3877;42.562;27.636;2023-03-01T10:18:55;15.17;;;9.60;;
7669;SDS011;3877;42.562;27.636;2023-03-01T10:21:28;15.97;;;8.87;;
7669;SDS011;3877;42.562;27.636;2023-03-01T10:23:57;17.77;;;9.83;;
7669;SDS011;3877;42.562;27.636;2023-03-01T10:26:38;17.53;;;9.50;;
7669;SDS011;3877;42.562;27.636;2023-03-01T10:29:14;15.53;;;9.37;;
7669;SDS011;3877;42.562;27.636;2023-03-01T10:31:41;17.37;;;9.70;;
7669;SDS011;3877;42.562;27.636;2023-03-01T10:34:13;24.37;;;11.80;;
7669;SDS011;3877;42.562;27.636;2023-03-01T10:36:43;17.33;;;11.17;;
7669;SDS011;3877;42.562;27.636;2023-03-01T10:39:16;17.40;;;9.60;;
7669;SDS011;3877;42.562;27.636;2023-03-01T10:41:57;20.47;;;11.07;;
7669;SDS011;3877;42.562;27.636;2023-03-01T10:44:36;14.00;;;9.07;;
7669;SDS011;3877;42.562;27.636;2023-03-01T10:47:11;17.77;;;10.83;;
7669;SDS011;3877;42.562;27.636;2023-03-01T10:49:51;21.93;;;10.80;;
7669;SDS011;3877;42.562;27.636;2023-03-01T10:52:21;17.00;;;10.37;;
7669;SDS011;3877;42.562;27.636;2023-03-01T10:54:54;20.90;;;11.70;;
7669;SDS011;3877;42.562;27.636;2023-03-01T10:57:30;18.17;;;9.50;;
7669;SDS011;3877;42.562;27.636;2023-03-01T11:00:09;19.50;;;11.50;;
7669;SDS011;3877;42.562;27.636;2023-03-01T11:02:43;18.10;;;11.53;;
7669;SDS011;3877;42.562;27.636;2023-03-01T11:05:18;18.67;;;11.67;;
7669;SDS011;3877;42.562;27.636;2023-03-01T11:07:49;19.67;;;12.13;;
7669;SDS011;3877;42.562;27.636;2023-03-01T11:10:19;23.97;;;13.10;;
7669;SDS011;3877;42.562;27.636;2023-03-01T11:12:48;23.30;;;13.57;;
7669;SDS011;3877;42.562;27.636;2023-03-01T11:15:23;18.63;;;11.60;;
7669;SDS011;3877;42.562;27.636;2023-03-01T11:17:53;18.83;;;11.70;;
7669;SDS011;3877;42.562;27.636;2023-03-01T11:20:25;17.47;;;11.67;;
7669;SDS011;3877;42.562;27.636;2023-03-01T11:22:57;20.27;;;13.00;;
7669;SDS011;3877;42.562;27.636;2023-03-01T11:25:30;19.53;;;12.37;;
7669;SDS011;3877;42.562;27.636;2023-03-01T11:28:02;22.83;;;12.43;;
7669;SDS011;3877;42.562;27.636;2023-03-01T11:30:32;18.33;;;12.20;;
7669;SDS011;3877;42.562;27.636;2023-03-01T11:33:08;14.90;;;10.33;;
7669;SDS011;3877;42.562;27.636;2023-03-01T11:35:46;14.93;;;10.00;;
7669;SDS011;3877;42.562;27.636;2023-03-01T11:38:21;12.77;;;8.90;;
7669;SDS011;3877;42.562;27.636;2023-03-01T11:40:51;13.53;;;9.77;;
7669;SDS011;3877;42.562;27.636;2023-03-01T11:43:26;14.77;;;9.80;;
7669;SDS011;3877;42.562;27.636;2023-03-01T11:49:24;12.17;;;7.00;;
7669;SDS011;3877;42.562;27.636;2023-03-01T11:52:08;12.60;;;6.93;;
7669;SDS011;3877;42.562;27.636;2023-03-01T11:54:50;13.73;;;7.33;;
7669;SDS011;3877;42.562;27.636;2023-03-01T11:57:34;11.20;;;6.83;;
7669;SDS011;3877;42.562;27.636;2023-03-01T12:00:15;9.90;;;6.37;;
7669;SDS011;3877;42.562;27.636;2023-03-01T12:05:54;11.60;;;6.77;;
7669;SDS011;3877;42.562;27.636;2023-03-01T12:08:53;10.17;;;6.30;;
7669;SDS011;3877;42.562;27.636;2023-03-01T12:11:32;9.70;;;6.40;;
7669;SDS011;3877;42.562;27.636;2023-03-01T12:14:23;8.40;;;5.63;;
7669;SDS011;3877;42.562;27.636;2023-03-01T12:20:00;10.10;;;5.33;;
7669;SDS011;3877;42.562;27.636;2023-03-01T12:22:42;11.23;;;6.07;;
7669;SDS011;3877;42.562;27.636;2023-03-01T12:25:22;11.70;;;6.40;;
7669;SDS011;3877;42.562;27.636;2023-03-01T12:30:59;12.47;;;6.80;;
7669;SDS011;3877;42.562;27.636;2023-03-01T12:33:45;14.23;;;6.47;;
7669;SDS011;3877;42.562;27.636;2023-03-01T12:36:27;9.77;;;6.60;;
7669;SDS011;3877;42.562;27.636;2023-03-01T12:39:11;11.10;;;6.37;;
7669;SDS011;3877;42.562;27.636;2023-03-01T12:41:53;13.30;;;6.77;;
7669;SDS011;3877;42.562;27.636;2023-03-01T12:44:31;15.27;;;7.20;;
7669;SDS011;3877;42.562;27.636;2023-03-01T12:47:15;15.97;;;7.33;;
7669;SDS011;3877;42.562;27.636;2023-03-01T12:49:51;14.57;;;7.83;;
7669;SDS011;3877;42.562;27.636;2023-03-01T12:52:23;16.70;;;7.53;;
7669;SDS011;3877;42.562;27.636;2023-03-01T12:55:00;10.00;;;7.60;;
7669;SDS011;3877;42.562;27.636;2023-03-01T12:57:37;10.13;;;6.27;;
7669;SDS011;3877;42.562;27.636;2023-03-01T13:00:15;17.50;;;8.23;;
7669;SDS011;3877;42.562;27.636;2023-03-01T13:02:52;12.03;;;7.57;;
7669;SDS011;3877;42.562;27.636;2023-03-01T13:05:26;14.13;;;7.90;;
7669;SDS011;3877;42.562;27.636;2023-03-01T13:08:06;14.87;;;8.00;;
7669;SDS011;3877;42.562;27.636;2023-03-01T13:10:41;14.17;;;7.60;;
7669;SDS011;3877;42.562;27.636;2023-03-01T13:13:18;12.60;;;7.90;;
7669;SDS011;3877;42.562;27.636;2023-03-01T13:15:47;12.67;;;7.53;;
7669;SDS011;3877;42.562;27.636;2023-03-01T13:18:32;16.30;;;8.90;;
7669;SDS011;3877;42.562;27.636;2023-03-01T13:21:02;15.23;;;8.07;;
7669;SDS011;3877;42.562;27.636;2023-03-01T13:23:32;11.77;;;6.53;;
7669;SDS011;3877;42.562;27.636;2023-03-01T13:26:08;21.00;;;7.67;;
7669;SDS011;3877;42.562;27.636;2023-03-01T13:28:48;10.40;;;6.00;;
7669;SDS011;3877;42.562;27.636;2023-03-01T13:34:44;9.00;;;6.80;;
7669;SDS011;3877;42.562;27.636;2023-03-01T13:37:20;12.57;;;6.80;;
7669;SDS011;3877;42.562;27.636;2023-03-01T13:39:54;12.10;;;6.47;;
7669;SDS011;3877;42.562;27.636;2023-03-01T13:42:31;7.60;;;5.27;;
7669;SDS011;3877;42.562;27.636;2023-03-01T13:45:12;10.30;;;5.50;;
7669;SDS011;3877;42.562;27.636;2023-03-01T13:47:55;10.27;;;5.83;;
7669;SDS011;3877;42.562;27.636;2023-03-01T13:50:25;13.63;;;6.47;;
7669;SDS011;3877;42.562;27.636;2023-03-01T13:52:55;8.90;;;4.83;;
7669;SDS011;3877;42.562;27.636;2023-03-01T13:55:27;9.67;;;5.60;;
7669;SDS011;3877;42.562;27.636;2023-03-01T13:58:02;12.50;;;5.50;;
7669;SDS011;3877;42.562;27.636;2023-03-01T14:00:42;10.17;;;5.43;;
7669;SDS011;3877;42.562;27.636;2023-03-01T14:03:11;11.87;;;5.10;;
7669;SDS011;3877;42.562;27.636;2023-03-01T14:05:40;9.13;;;5.37;;
7669;SDS011;3877;42.562;27.636;2023-03-01T14:08:19;15.10;;;6.27;;
7669;SDS011;3877;42.562;27.636;2023-03-01T14:10:52;7.13;;;5.10;;
7669;SDS011;3877;42.562;27.636;2023-03-01T14:13:30;9.30;;;5.60;;
7669;SDS011;3877;42.562;27.636;2023-03-01T14:16:17;9.13;;;5.10;;
7669;SDS011;3877;42.562;27.636;2023-03-01T14:18:56;9.70;;;5.50;;
7669;SDS011;3877;42.562;27.636;2023-03-01T14:21:36;10.03;;;5.77;;
7669;SDS011;3877;42.562;27.636;2023-03-01T14:24:03;13.27;;;5.87;;
7669;SDS011;3877;42.562;27.636;2023-03-01T14:26:31;15.33;;;5.70;;
7669;SDS011;3877;42.562;27.636;2023-03-01T14:29:01;18.80;;;6.73;;
7669;SDS011;3877;42.562;27.636;2023-03-01T14:31:34;11.00;;;5.27;;
7669;SDS011;3877;42.562;27.636;2023-03-01T14:34:03;10.70;;;5.37;;
7669;SDS011;3877;42.562;27.636;2023-03-01T14:36:31;12.87;;;5.60;;
7669;SDS011;3877;42.562;27.636;2023-03-01T14:39:00;8.83;;;5.17;;
7669;SDS011;3877;42.562;27.636;2023-03-01T14:41:32;9.70;;;4.90;;
7669;SDS011;3877;42.562;27.636;2023-03-01T14:44:03;11.87;;;6.30;;
7669;SDS011;3877;42.562;27.636;2023-03-01T14:46:35;13.33;;;6.17;;
7669;SDS011;3877;42.562;27.636;2023-03-01T14:49:05;15.50;;;5.57;;
7669;SDS011;3877;42.562;27.636;2023-03-01T14:51:37;13.63;;;5.60;;
7669;SDS011;3877;42.562;27.636;2023-03-01T14:54:10;9.30;;;5.83;;
7669;SDS011;3877;42.562;27.636;2023-03-01T14:56:47;17.43;;;7.67;;
7669;SDS011;3877;42.562;27.636;2023-03-01T14:59:15;10.53;;;5.30;;
7669;SDS011;3877;42.562;27.636;2023-03-01T15:01:43;12.07;;;5.47;;
7669;SDS011;3877;42.562;27.636;2023-03-01T15:04:12;10.63;;;5.27;;
7669;SDS011;3877;42.562;27.636;2023-03-01T15:06:41;9.83;;;5.80;;
7669;SDS011;3877;42.562;27.636;2023-03-01T15:09:11;11.37;;;6.33;;
7669;SDS011;3877;42.562;27.636;2023-03-01T15:11:42;9.20;;;4.93;;
7669;SDS011;3877;42.562;27.636;2023-03-01T15:16:55;8.60;;;5.27;;
7669;SDS011;3877;42.562;27.636;2023-03-01T15:19:23;8.37;;;5.27;;
7669;SDS011;3877;42.562;27.636;2023-03-01T15:21:55;8.93;;;5.10;;
7669;SDS011;3877;42.562;27.636;2023-03-01T15:24:24;10.03;;;5.30;;
7669;SDS011;3877;42.562;27.636;2023-03-01T15:26:55;12.23;;;4.70;;
7669;SDS011;3877;42.562;27.636;2023-03-01T15:29:32;7.47;;;4.37;;
7669;SDS011;3877;42.562;27.636;2023-03-01T15:32:23;8.53;;;4.77;;